createdAt,value
2018-02-10T00:00:23.604Z,0
2018-02-10T00:01:33.592Z,0
2018-02-10T00:02:43.571Z,0
2018-02-10T00:03:53.304Z,0
2018-02-10T00:05:03.023Z,0
2018-02-10T00:06:12.468Z,0
2018-02-10T00:07:22.190Z,0
2018-02-10T00:08:32.168Z,0
2018-02-10T00:09:42.153Z,0
2018-02-10T00:10:52.132Z,0
2018-02-10T00:12:02.161Z,0
2018-02-10T00:13:11.876Z,0
2018-02-10T00:14:21.857Z,0
2018-02-10T00:15:31.308Z,0
2018-02-10T00:16:41.035Z,0
2018-02-10T00:17:50.490Z,0
2018-02-10T00:19:00.232Z,0
2018-02-10T00:20:09.687Z,0
2018-02-10T00:21:19.666Z,0
2018-02-10T00:22:29.646Z,0
2018-02-10T00:23:39.627Z,0
2018-02-10T00:24:49.342Z,0
2018-02-10T00:25:59.387Z,0
2018-02-10T00:27:09.371Z,0
2018-02-10T00:28:19.085Z,0
2018-02-10T00:29:28.806Z,0
2018-02-10T00:30:38.891Z,0
2018-02-10T00:31:48.677Z,0
2018-02-10T00:32:58.654Z,0
2018-02-10T00:34:08.368Z,0
2018-02-10T00:35:18.350Z,0
2018-02-10T00:36:28.064Z,0
2018-02-10T00:37:38.046Z,0
2018-02-10T00:38:48.031Z,0
2018-02-10T00:39:58.005Z,0
2018-02-10T00:41:07.986Z,0
2018-02-10T00:42:17.971Z,0
2018-02-10T00:43:27.949Z,0
2018-02-10T00:44:37.927Z,0
2018-02-10T00:45:47.905Z,0
2018-02-10T00:46:57.898Z,0
2018-02-10T00:48:07.872Z,0
2018-02-10T00:49:17.860Z,0
2018-02-10T00:50:27.843Z,0
2018-02-10T00:51:37.568Z,0
2018-02-10T00:52:47.555Z,0
2018-02-10T00:53:57.320Z,0
2018-02-10T00:55:07.036Z,0
2018-02-10T00:56:16.814Z,0
2018-02-10T00:57:26.541Z,0
2018-02-10T00:58:36.261Z,0
2018-02-10T00:59:46.245Z,0
2018-02-10T01:00:56.223Z,0
2018-02-10T01:02:06.194Z,0
2018-02-10T01:03:16.181Z,0
2018-02-10T01:04:25.897Z,0
2018-02-10T01:05:35.888Z,0
2018-02-10T01:06:45.865Z,0
2018-02-10T01:07:55.045Z,0
2018-02-10T01:09:05.025Z,0
2018-02-10T01:10:14.741Z,0
2018-02-10T01:11:24.462Z,0
2018-02-10T01:12:34.176Z,0
2018-02-10T01:13:44.157Z,0
2018-02-10T01:14:54.134Z,0
2018-02-10T01:16:04.155Z,0
2018-02-10T01:17:13.874Z,0
2018-02-10T01:18:23.583Z,0
2018-02-10T01:19:33.340Z,0
2018-02-10T01:20:43.320Z,0
2018-02-10T01:21:53.306Z,0
2018-02-10T01:23:03.029Z,0
2018-02-10T01:24:12.213Z,0
2018-02-10T01:25:22.200Z,0
2018-02-10T01:26:31.914Z,0
2018-02-10T01:27:41.633Z,0
2018-02-10T01:28:51.613Z,0
2018-02-10T01:30:01.325Z,0
2018-02-10T01:31:11.044Z,0
2018-02-10T01:32:21.032Z,0
2018-02-10T01:33:30.748Z,0
2018-02-10T01:34:40.506Z,0
2018-02-10T01:35:50.483Z,0
2018-02-10T01:37:00.475Z,0
2018-02-10T01:38:10.192Z,0
2018-02-10T01:39:20.171Z,0
2018-02-10T01:40:30.155Z,0
2018-02-10T01:41:39.865Z,0
2018-02-10T01:42:49.576Z,0
2018-02-10T01:43:59.554Z,0
2018-02-10T01:45:09.536Z,0
2018-02-10T01:46:19.523Z,0
2018-02-10T01:47:29.501Z,0
2018-02-10T01:48:38.952Z,0
2018-02-10T01:49:48.931Z,0
2018-02-10T01:50:58.645Z,0
2018-02-10T01:52:08.360Z,0
2018-02-10T01:53:18.343Z,0
2018-02-10T01:54:28.325Z,0
2018-02-10T01:55:38.038Z,0
2018-02-10T01:56:47.758Z,0
2018-02-10T01:57:57.786Z,0
2018-02-10T01:59:07.238Z,0
2018-02-10T02:00:17.222Z,0
2018-02-10T02:01:26.941Z,0
2018-02-10T02:02:36.962Z,0
2018-02-10T02:03:46.673Z,0
2018-02-10T02:04:56.125Z,0
2018-02-10T02:06:06.103Z,0
2018-02-10T02:07:16.081Z,0
2018-02-10T02:08:25.799Z,0
2018-02-10T02:09:35.777Z,0
2018-02-10T02:10:45.763Z,0
2018-02-10T02:11:55.744Z,0
2018-02-10T02:13:05.797Z,0
2018-02-10T02:14:15.247Z,0
2018-02-10T02:15:25.231Z,0
2018-02-10T02:16:34.953Z,0
2018-02-10T02:17:44.962Z,0
2018-02-10T02:18:54.941Z,0
2018-02-10T02:20:04.917Z,0
2018-02-10T02:21:14.960Z,0
2018-02-10T02:22:24.993Z,0
2018-02-10T02:23:34.714Z,0
2018-02-10T02:24:44.693Z,0
2018-02-10T02:25:54.408Z,0
2018-02-10T02:27:04.390Z,0
2018-02-10T02:28:14.366Z,0
2018-02-10T02:29:24.344Z,0
2018-02-10T02:30:34.066Z,0
2018-02-10T02:31:43.519Z,0
2018-02-10T02:32:53.507Z,0
2018-02-10T02:34:03.228Z,0
2018-02-10T02:35:12.943Z,0
2018-02-10T02:36:22.402Z,0
2018-02-10T02:37:32.406Z,0
2018-02-10T02:38:42.394Z,0
2018-02-10T02:39:52.379Z,0
2018-02-10T02:41:02.357Z,0
2018-02-10T02:42:12.343Z,0
2018-02-10T02:43:22.061Z,0
2018-02-10T02:44:31.621Z,0
2018-02-10T02:45:41.342Z,0
2018-02-10T02:46:51.326Z,0
2018-02-10T02:48:01.043Z,0
2018-02-10T02:49:11.029Z,0
2018-02-10T02:50:21.003Z,0
2018-02-10T02:51:30.984Z,0
2018-02-10T02:52:40.701Z,0
2018-02-10T02:53:50.423Z,0
2018-02-10T02:55:00.408Z,0
2018-02-10T02:56:09.872Z,0
2018-02-10T02:57:19.860Z,0
2018-02-10T02:58:29.849Z,0
2018-02-10T02:59:39.298Z,0
2018-02-10T03:00:49.285Z,0
2018-02-10T03:01:59.315Z,0
2018-02-10T03:03:09.311Z,0
2018-02-10T03:04:19.030Z,0
2018-02-10T03:05:28.747Z,0
2018-02-10T03:06:38.460Z,0
2018-02-10T03:07:47.941Z,0
2018-02-10T03:08:57.983Z,0
2018-02-10T03:10:07.432Z,0
2018-02-10T03:11:17.150Z,0
2018-02-10T03:12:27.129Z,0
2018-02-10T03:13:36.852Z,0
2018-02-10T03:14:46.571Z,0
2018-02-10T03:15:56.284Z,0
2018-02-10T03:17:06.265Z,0
2018-02-10T03:18:15.986Z,0
2018-02-10T03:19:26.065Z,0
2018-02-10T03:20:36.054Z,0
2018-02-10T03:21:46.036Z,0
2018-02-10T03:22:55.747Z,0
2018-02-10T03:24:05.727Z,0
2018-02-10T03:25:14.915Z,0
2018-02-10T03:26:24.899Z,0
2018-02-10T03:27:34.620Z,0
2018-02-10T03:28:44.364Z,0
2018-02-10T03:29:54.089Z,0
2018-02-10T03:31:04.078Z,0
2018-02-10T03:32:13.802Z,0
2018-02-10T03:33:23.781Z,0
2018-02-10T03:34:33.768Z,0
2018-02-10T03:35:43.850Z,0
2018-02-10T03:36:53.394Z,0
2018-02-10T03:38:03.149Z,0
2018-02-10T03:39:12.912Z,0
2018-02-10T03:40:22.930Z,0
2018-02-10T03:41:32.651Z,0
2018-02-10T03:42:42.099Z,0
2018-02-10T03:43:51.547Z,0
2018-02-10T03:45:01.525Z,0
2018-02-10T03:46:11.510Z,0
2018-02-10T03:47:21.226Z,0
2018-02-10T03:48:30.672Z,0
2018-02-10T03:49:40.651Z,0
2018-02-10T03:50:49.843Z,0
2018-02-10T03:51:59.556Z,0
2018-02-10T03:53:09.268Z,0
2018-02-10T03:54:18.764Z,0
2018-02-10T03:55:28.235Z,0
2018-02-10T03:56:38.218Z,0
2018-02-10T03:57:48.206Z,0
2018-02-10T03:58:58.195Z,0
2018-02-10T04:00:08.191Z,0
2018-02-10T04:04:18.500Z,0
2018-02-10T04:05:28.476Z,0
2018-02-10T04:06:38.457Z,0
2018-02-10T04:07:48.439Z,0
2018-02-10T04:08:58.463Z,0
2018-02-10T04:10:08.180Z,0
2018-02-10T04:11:18.208Z,0
2018-02-10T04:12:27.928Z,0
2018-02-10T04:13:37.905Z,0
2018-02-10T04:14:47.880Z,0
2018-02-10T04:15:57.854Z,0
2018-02-10T04:17:07.575Z,0
2018-02-10T04:18:17.555Z,0
2018-02-10T04:19:27.271Z,0
2018-02-10T04:20:37.252Z,0
2018-02-10T04:21:47.264Z,0
2018-02-10T04:22:56.680Z,0
2018-02-10T04:24:06.396Z,0
2018-02-10T04:25:16.372Z,0
2018-02-10T04:26:26.354Z,0
2018-02-10T04:27:36.069Z,0
2018-02-10T04:28:46.051Z,0
2018-02-10T04:29:56.032Z,0
2018-02-10T04:31:05.742Z,0
2018-02-10T04:32:15.736Z,0
2018-02-10T04:33:25.462Z,0
2018-02-10T04:34:34.914Z,0
2018-02-10T04:35:44.894Z,0
2018-02-10T04:36:54.608Z,0
2018-02-10T04:38:04.319Z,0
2018-02-10T04:39:14.032Z,0
2018-02-10T04:40:23.748Z,0
2018-02-10T04:41:33.196Z,0
2018-02-10T04:42:43.179Z,0
2018-02-10T04:43:52.627Z,0
2018-02-10T04:45:02.342Z,0
2018-02-10T04:46:12.062Z,0
2018-02-10T04:47:22.046Z,0
2018-02-10T04:48:31.762Z,0
2018-02-10T04:49:41.741Z,0
2018-02-10T04:50:51.518Z,0
2018-02-10T04:52:01.234Z,0
2018-02-10T04:53:10.955Z,0
2018-02-10T04:54:20.941Z,0
2018-02-10T04:55:30.657Z,0
2018-02-10T04:56:40.109Z,0
2018-02-10T04:57:49.876Z,0
2018-02-10T04:58:59.591Z,0
2018-02-10T05:00:09.575Z,0
2018-02-10T05:01:19.354Z,0
2018-02-10T05:02:29.343Z,0
2018-02-10T05:03:38.797Z,0
2018-02-10T05:04:48.513Z,0
2018-02-10T05:05:58.492Z,0
2018-02-10T05:07:08.215Z,0
2018-02-10T05:08:17.933Z,0
2018-02-10T05:09:27.650Z,0
2018-02-10T05:10:37.629Z,0
2018-02-10T05:11:47.080Z,0
2018-02-10T05:12:57.062Z,0
2018-02-10T05:14:06.782Z,0
2018-02-10T05:15:16.763Z,0
2018-02-10T05:16:26.487Z,0
2018-02-10T05:17:36.468Z,0
2018-02-10T05:18:46.456Z,0
2018-02-10T05:19:56.168Z,0
2018-02-10T05:21:06.212Z,0
2018-02-10T05:22:16.194Z,0
2018-02-10T05:23:25.904Z,0
2018-02-10T05:24:35.883Z,0
2018-02-10T05:25:45.596Z,0
2018-02-10T05:26:55.570Z,0
2018-02-10T05:28:05.287Z,0
2018-02-10T05:29:15.005Z,0
2018-02-10T05:30:24.983Z,0
2018-02-10T05:31:34.961Z,0
2018-02-10T05:32:44.949Z,0
2018-02-10T05:33:54.934Z,0
2018-02-10T05:35:04.923Z,0
2018-02-10T05:36:14.898Z,0
2018-02-10T05:37:24.889Z,0
2018-02-10T05:38:34.705Z,0
2018-02-10T05:39:44.687Z,0
2018-02-10T05:40:54.405Z,0
2018-02-10T05:42:04.388Z,0
2018-02-10T05:43:14.368Z,0
2018-02-10T05:44:24.137Z,0
2018-02-10T05:45:34.180Z,0
2018-02-10T05:46:43.893Z,0
2018-02-10T05:47:53.341Z,0
2018-02-10T05:49:03.320Z,0
2018-02-10T05:50:13.033Z,0
2018-02-10T05:51:22.482Z,0
2018-02-10T05:52:32.457Z,0
2018-02-10T05:53:42.431Z,0
2018-02-10T05:54:52.144Z,0
2018-02-10T05:56:02.135Z,0
2018-02-10T05:57:12.114Z,0
2018-02-10T05:58:22.088Z,0
2018-02-10T05:59:32.070Z,0
2018-02-10T06:00:41.791Z,0
2018-02-10T06:01:51.884Z,0
2018-02-10T06:03:01.859Z,0
2018-02-10T06:04:11.587Z,0
2018-02-10T06:05:21.580Z,0
2018-02-10T06:06:31.346Z,0
2018-02-10T06:07:41.426Z,0
2018-02-10T06:08:51.405Z,0
2018-02-10T06:10:01.390Z,0
2018-02-10T06:11:11.371Z,0
2018-02-10T06:12:21.351Z,0
2018-02-10T06:13:30.801Z,0
2018-02-10T06:14:40.517Z,0
2018-02-10T06:15:50.229Z,0
2018-02-10T06:16:59.943Z,0
2018-02-10T06:18:09.935Z,0
2018-02-10T06:19:19.653Z,0
2018-02-10T06:20:29.632Z,0
2018-02-10T06:21:39.611Z,0
2018-02-10T06:22:49.326Z,0
2018-02-10T06:23:59.042Z,0
2018-02-10T06:25:09.027Z,0
2018-02-10T06:26:19.012Z,0
2018-02-10T06:27:28.986Z,0
2018-02-10T06:28:38.701Z,0
2018-02-10T06:29:48.416Z,0
2018-02-10T06:30:58.401Z,4
2018-02-10T06:32:07.589Z,0
2018-02-10T06:33:17.313Z,0
2018-02-10T06:34:27.038Z,4
2018-02-10T06:35:37.025Z,4
2018-02-10T06:36:47.001Z,0
2018-02-10T06:37:56.977Z,4
2018-02-10T06:39:06.956Z,4
2018-02-10T06:40:16.933Z,8
2018-02-10T06:41:26.911Z,4
2018-02-10T06:42:36.365Z,8
2018-02-10T06:43:46.086Z,8
2018-02-10T06:44:56.089Z,12
2018-02-10T06:46:06.127Z,12
2018-02-10T06:47:15.864Z,12
2018-02-10T06:48:25.844Z,16
2018-02-10T06:49:35.821Z,16
2018-02-10T06:50:45.269Z,20
2018-02-10T06:51:55.247Z,24
2018-02-10T06:53:04.703Z,28
2018-02-10T06:54:14.677Z,28
2018-02-10T06:55:24.397Z,32
2018-02-10T06:56:34.371Z,36
2018-02-10T06:57:44.347Z,40
2018-02-10T06:58:54.326Z,44
2018-02-10T07:00:04.091Z,48
2018-02-10T07:01:14.072Z,52
2018-02-10T07:02:24.056Z,56
2018-02-10T07:03:34.040Z,60
2018-02-10T07:04:43.751Z,68
2018-02-10T07:05:53.464Z,76
2018-02-10T07:07:03.450Z,84
2018-02-10T07:08:12.369Z,88
2018-02-10T07:09:22.095Z,96
2018-02-10T07:10:31.551Z,104
2018-02-10T07:11:41.528Z,108
2018-02-10T07:12:51.314Z,116
2018-02-10T07:14:01.292Z,128
2018-02-10T07:15:11.009Z,136
2018-02-10T07:16:20.458Z,140
2018-02-10T07:17:30.214Z,148
2018-02-10T07:18:40.192Z,160
2018-02-10T07:19:50.170Z,168
2018-02-10T07:21:00.154Z,176
2018-02-10T07:22:09.602Z,188
2018-02-10T07:23:19.635Z,200
2018-02-10T07:24:29.624Z,212
2018-02-10T07:25:39.077Z,232
2018-02-10T07:26:49.055Z,248
2018-02-10T07:27:58.778Z,264
2018-02-10T07:29:07.965Z,284
2018-02-10T07:30:17.681Z,300
2018-02-10T07:31:27.393Z,324
2018-02-10T07:32:37.168Z,340
2018-02-10T07:33:47.163Z,368
2018-02-10T07:34:57.139Z,392
2018-02-10T07:36:06.587Z,416
2018-02-10T07:37:15.774Z,440
2018-02-10T07:38:25.750Z,468
2018-02-10T07:39:34.936Z,496
2018-02-10T07:40:44.913Z,524
2018-02-10T07:41:54.896Z,556
2018-02-10T07:43:04.876Z,580
2018-02-10T07:44:14.852Z,608
2018-02-10T07:45:24.300Z,640
2018-02-10T07:46:33.749Z,672
2018-02-10T07:47:43.730Z,708
2018-02-10T07:48:53.178Z,740
2018-02-10T07:50:02.627Z,776
2018-02-10T07:51:12.605Z,816
2018-02-10T07:52:22.054Z,856
2018-02-10T07:53:31.502Z,892
2018-02-10T07:54:41.215Z,924
2018-02-10T07:55:50.930Z,956
2018-02-10T07:57:00.967Z,996
2018-02-10T07:58:10.955Z,1028
2018-02-10T07:59:20.757Z,1056
2018-02-10T08:00:30.470Z,1072
2018-02-10T08:01:39.919Z,1088
2018-02-10T08:02:49.897Z,1100
2018-02-10T08:03:59.924Z,1112
2018-02-10T08:05:09.899Z,1132
2018-02-10T08:06:19.888Z,1160
2018-02-10T08:07:29.862Z,1196
2018-02-10T08:08:39.840Z,1220
2018-02-10T08:09:49.616Z,1232
2018-02-10T08:10:59.331Z,1248
2018-02-10T08:12:08.252Z,1276
2018-02-10T08:13:18.231Z,1332
2018-02-10T08:14:28.209Z,1404
2018-02-10T08:15:37.923Z,1496
2018-02-10T08:16:47.375Z,1580
2018-02-10T08:17:57.091Z,1652
2018-02-10T08:19:06.800Z,1724
2018-02-10T08:20:16.774Z,1804
2018-02-10T08:21:26.811Z,1868
2018-02-10T08:22:36.538Z,1932
2018-02-10T08:23:46.521Z,1972
2018-02-10T08:24:56.497Z,2008
2018-02-10T08:26:06.501Z,2028
2018-02-10T08:27:16.478Z,2008
2018-02-10T08:28:26.189Z,1968
2018-02-10T08:29:35.900Z,1948
2018-02-10T08:30:45.613Z,1964
2018-02-10T08:31:55.590Z,1988
2018-02-10T08:33:05.416Z,2024
2018-02-10T08:34:15.128Z,2064
2018-02-10T08:35:24.841Z,2120
2018-02-10T08:36:34.290Z,2196
2018-02-10T08:37:44.011Z,2296
2018-02-10T08:38:53.727Z,2412
2018-02-10T08:40:03.706Z,2512
2018-02-10T08:41:13.419Z,2576
2018-02-10T08:42:23.135Z,2620
2018-02-10T08:43:32.848Z,2656
2018-02-10T08:44:42.824Z,2668
2018-02-10T08:45:52.802Z,2668
2018-02-10T08:47:02.248Z,2688
2018-02-10T08:48:12.277Z,2728
2018-02-10T08:49:22.254Z,2760
2018-02-10T08:50:31.705Z,2808
2018-02-10T08:51:41.686Z,2892
2018-02-10T08:52:51.666Z,3016
2018-02-10T08:54:01.378Z,3152
2018-02-10T08:55:11.354Z,3272
2018-02-10T08:56:21.162Z,3368
2018-02-10T08:57:31.140Z,3440
2018-02-10T08:58:41.119Z,3484
2018-02-10T08:59:50.564Z,3496
2018-02-10T09:01:00.272Z,3468
2018-02-10T09:02:10.304Z,3424
2018-02-10T09:03:20.279Z,3396
2018-02-10T09:04:29.728Z,3404
2018-02-10T09:05:39.177Z,3428
2018-02-10T09:06:49.159Z,3476
2018-02-10T09:07:58.875Z,3548
2018-02-10T09:09:08.852Z,3656
2018-02-10T09:10:18.568Z,3800
2018-02-10T09:11:28.562Z,3920
2018-02-10T09:12:38.275Z,4016
2018-02-10T09:13:47.725Z,4120
2018-02-10T09:14:57.448Z,4216
2018-02-10T09:16:07.425Z,4332
2018-02-10T09:17:17.403Z,4464
2018-02-10T09:18:27.114Z,4596
2018-02-10T09:19:37.149Z,4724
2018-02-10T09:20:47.129Z,4836
2018-02-10T09:21:57.115Z,4944
2018-02-10T09:23:07.094Z,5044
2018-02-10T09:24:17.078Z,5112
2018-02-10T09:25:26.575Z,5112
2018-02-10T09:26:36.288Z,5068
2018-02-10T09:27:45.999Z,4956
2018-02-10T09:28:55.712Z,4808
2018-02-10T09:30:05.698Z,4608
2018-02-10T09:31:15.146Z,4448
2018-02-10T09:32:24.333Z,4316
2018-02-10T09:33:33.785Z,4244
2018-02-10T09:34:43.493Z,4240
2018-02-10T09:35:53.479Z,4280
2018-02-10T09:37:03.201Z,4308
2018-02-10T09:38:12.654Z,4376
2018-02-10T09:39:21.837Z,4444
2018-02-10T09:40:31.336Z,4488
2018-02-10T09:41:41.050Z,4524
2018-02-10T09:42:50.769Z,4544
2018-02-10T09:44:00.759Z,4628
2018-02-10T09:45:09.952Z,4624
2018-02-10T09:46:19.977Z,4596
2018-02-10T09:47:29.693Z,4548
2018-02-10T09:48:39.413Z,4552
2018-02-10T09:49:49.396Z,4564
2018-02-10T09:50:59.118Z,4516
2018-02-10T09:52:08.863Z,4484
2018-02-10T09:53:18.855Z,4460
2018-02-10T09:54:28.043Z,4524
2018-02-10T09:55:38.026Z,4540
2018-02-10T09:56:48.012Z,4552
2018-02-10T09:57:57.774Z,4556
2018-02-10T09:59:07.811Z,4556
2018-02-10T10:00:17.788Z,4548
2018-02-10T10:01:27.504Z,4584
2018-02-10T10:02:37.535Z,4732
2018-02-10T10:03:47.526Z,4896
2018-02-10T10:04:57.505Z,5076
2018-02-10T10:06:07.270Z,5192
2018-02-10T10:07:16.991Z,5460
2018-02-10T10:08:26.975Z,5688
2018-02-10T10:09:36.690Z,5800
2018-02-10T10:10:46.673Z,5960
2018-02-10T10:11:56.654Z,6016
2018-02-10T10:13:06.364Z,5992
2018-02-10T10:14:16.354Z,6020
2018-02-10T10:15:26.337Z,6052
2018-02-10T10:16:36.060Z,6052
2018-02-10T10:17:45.777Z,5916
2018-02-10T10:18:54.966Z,5884
2018-02-10T10:20:04.962Z,5728
2018-02-10T10:21:14.240Z,5628
2018-02-10T10:22:23.705Z,5544
2018-02-10T10:23:33.693Z,5512
2018-02-10T10:24:43.683Z,5412
2018-02-10T10:25:53.402Z,5340
2018-02-10T10:27:03.122Z,5328
2018-02-10T10:28:12.622Z,5328
2018-02-10T10:29:22.337Z,5328
2018-02-10T10:30:32.055Z,5368
2018-02-10T10:31:42.037Z,5548
2018-02-10T10:32:52.016Z,5676
2018-02-10T10:34:01.989Z,5728
2018-02-10T10:35:11.567Z,5824
2018-02-10T10:36:21.558Z,5904
2018-02-10T10:37:31.269Z,6028
2018-02-10T10:38:40.720Z,6092
2018-02-10T10:39:50.702Z,6020
2018-02-10T10:41:00.420Z,6036
2018-02-10T10:42:09.872Z,6156
2018-02-10T10:43:19.593Z,6352
2018-02-10T10:44:29.320Z,6608
2018-02-10T10:45:39.039Z,6672
2018-02-10T10:46:48.495Z,6912
2018-02-10T10:47:58.215Z,7236
2018-02-10T10:49:07.933Z,7168
2018-02-10T10:50:17.915Z,7104
2018-02-10T10:51:27.909Z,7072
2018-02-10T10:52:37.618Z,7124
2018-02-10T10:53:47.333Z,7168
2018-02-10T10:54:57.317Z,7104
2018-02-10T10:56:07.032Z,7068
2018-02-10T10:57:16.750Z,6996
2018-02-10T10:58:26.741Z,6848
2018-02-10T10:59:36.461Z,6944
2018-02-10T11:00:46.439Z,6888
2018-02-10T11:01:56.164Z,6812
2018-02-10T11:03:06.204Z,6708
2018-02-10T11:04:15.941Z,6936
2018-02-10T11:05:25.955Z,7068
2018-02-10T11:06:35.944Z,6988
2018-02-10T11:07:45.925Z,6828
2018-02-10T11:08:55.909Z,7012
2018-02-10T11:10:05.938Z,7316
2018-02-10T11:11:15.655Z,7500
2018-02-10T11:12:25.103Z,7528
2018-02-10T11:13:34.559Z,7584
2018-02-10T11:14:44.313Z,7764
2018-02-10T11:15:54.079Z,7804
2018-02-10T11:17:04.068Z,7532
2018-02-10T11:18:14.050Z,7428
2018-02-10T11:19:24.035Z,7288
2018-02-10T11:20:33.482Z,7128
2018-02-10T11:21:43.466Z,7268
2018-02-10T11:22:53.187Z,7324
2018-02-10T11:24:03.165Z,7204
2018-02-10T11:25:12.899Z,7404
2018-02-10T11:26:22.878Z,7492
2018-02-10T11:27:32.854Z,7668
2018-02-10T11:28:42.841Z,7708
2018-02-10T11:29:52.569Z,8304
2018-02-10T11:31:02.551Z,8532
2018-02-10T11:32:12.268Z,9200
2018-02-10T11:33:22.085Z,9596
2018-02-10T11:34:32.060Z,10212
2018-02-10T11:35:41.787Z,10336
2018-02-10T11:36:51.237Z,11172
2018-02-10T11:38:01.219Z,11476
2018-02-10T11:39:10.932Z,11540
2018-02-10T11:40:20.388Z,14160
2018-02-10T11:41:30.105Z,17856
2018-02-10T11:42:39.837Z,12916
2018-02-10T11:43:49.816Z,11752
2018-02-10T11:44:59.273Z,9900
2018-02-10T11:46:08.727Z,9200
2018-02-10T11:47:18.187Z,8732
2018-02-10T11:48:28.171Z,8328
2018-02-10T11:49:37.889Z,8640
2018-02-10T11:50:47.708Z,8508
2018-02-10T11:51:57.427Z,8656
2018-02-10T11:53:07.406Z,8608
2018-02-10T11:54:16.855Z,9168
2018-02-10T11:55:26.571Z,9292
2018-02-10T11:56:36.286Z,9720
2018-02-10T11:57:46.275Z,9828
2018-02-10T11:58:55.987Z,9904
2018-02-10T12:00:05.965Z,10332
2018-02-10T12:01:15.701Z,10924
2018-02-10T12:02:25.749Z,10952
2018-02-10T12:03:35.473Z,10864
2018-02-10T12:04:45.194Z,10372
2018-02-10T12:05:54.649Z,10028
2018-02-10T12:07:04.621Z,9988
2018-02-10T12:08:14.382Z,9976
2018-02-10T12:09:23.832Z,9780
2018-02-10T12:10:33.550Z,9384
2018-02-10T12:11:43.531Z,9196
2018-02-10T12:12:53.516Z,8988
2018-02-10T12:14:03.504Z,9380
2018-02-10T12:15:12.958Z,9964
2018-02-10T12:16:22.942Z,11716
2018-02-10T12:17:32.921Z,12208
2018-02-10T12:18:42.903Z,13436
2018-02-10T12:19:52.624Z,9628
2018-02-10T12:21:02.611Z,9496
2018-02-10T12:22:12.067Z,8976
2018-02-10T12:23:22.049Z,9688
2018-02-10T12:24:31.234Z,8324
2018-02-10T12:25:41.003Z,7904
2018-02-10T12:26:50.981Z,7872
2018-02-10T12:28:00.962Z,7632
2018-02-10T12:29:10.419Z,7764
2018-02-10T12:30:20.401Z,7656
2018-02-10T12:31:30.118Z,7672
2018-02-10T12:32:40.103Z,7504
2018-02-10T12:33:49.825Z,7428
2018-02-10T12:34:59.804Z,7632
2018-02-10T12:36:09.257Z,7776
2018-02-10T12:37:18.973Z,7764
2018-02-10T12:38:28.694Z,7192
2018-02-10T12:39:38.417Z,6956
2018-02-10T12:40:48.143Z,7420
2018-02-10T12:41:58.128Z,7092
2018-02-10T12:43:07.839Z,6904
2018-02-10T12:44:17.557Z,6228
2018-02-10T12:45:27.280Z,5608
2018-02-10T12:46:36.731Z,5452
2018-02-10T12:47:46.456Z,5884
2018-02-10T12:48:56.441Z,5212
2018-02-10T12:50:06.420Z,5056
2018-02-10T12:51:16.413Z,5032
2018-02-10T12:52:26.399Z,5124
2018-02-10T12:53:35.856Z,5296
2018-02-10T12:54:45.835Z,5560
2018-02-10T12:55:55.552Z,5736
2018-02-10T12:57:05.546Z,6036
2018-02-10T12:58:15.268Z,6188
2018-02-10T12:59:24.980Z,6296
2018-02-10T13:00:34.973Z,6580
2018-02-10T13:01:44.689Z,7280
2018-02-10T13:02:54.408Z,8412
2018-02-10T13:04:04.128Z,9492
2018-02-10T13:05:14.112Z,9936
2018-02-10T13:06:23.876Z,10184
2018-02-10T13:07:33.590Z,11920
2018-02-10T13:08:43.070Z,10852
2018-02-10T13:09:52.004Z,8916
2018-02-10T13:11:01.720Z,7600
2018-02-10T13:12:11.438Z,6708
2018-02-10T13:13:21.416Z,5892
2018-02-10T13:14:31.132Z,5192
2018-02-10T13:15:41.115Z,5064
2018-02-10T13:16:50.574Z,4968
2018-02-10T13:18:00.341Z,4576
2018-02-10T13:19:10.057Z,4332
2018-02-10T13:20:20.046Z,4380
2018-02-10T13:21:29.764Z,3948
2018-02-10T13:22:39.483Z,3352
2018-02-10T13:23:49.201Z,2876
2018-02-10T13:24:58.926Z,2540
2018-02-10T13:26:08.645Z,2288
2018-02-10T13:27:18.679Z,2128
2018-02-10T13:28:28.459Z,2120
2018-02-10T13:29:38.514Z,2200
2018-02-10T13:30:48.506Z,2380
2018-02-10T13:31:58.222Z,2624
2018-02-10T13:33:08.208Z,2828
2018-02-10T13:34:17.662Z,2844
2018-02-10T13:35:27.702Z,2804
2018-02-10T13:36:37.692Z,2780
2018-02-10T13:37:47.451Z,2740
2018-02-10T13:38:57.438Z,2760
2018-02-10T13:40:07.154Z,2792
2018-02-10T13:41:16.877Z,2776
2018-02-10T13:42:26.593Z,2740
2018-02-10T13:43:36.049Z,2684
2018-02-10T13:44:45.548Z,2692
2018-02-10T13:45:55.552Z,2676
2018-02-10T13:47:05.591Z,2528
2018-02-10T13:48:15.333Z,2428
2018-02-10T13:49:25.313Z,2504
2018-02-10T13:50:35.027Z,2500
2018-02-10T13:51:45.068Z,2484
2018-02-10T13:52:54.788Z,2516
2018-02-10T13:54:04.504Z,2432
2018-02-10T13:55:14.528Z,2352
2018-02-10T13:56:23.980Z,2312
2018-02-10T13:57:33.698Z,2300
2018-02-10T13:58:43.780Z,2304
2018-02-10T13:59:53.229Z,2252
2018-02-10T14:01:02.944Z,2268
2018-02-10T14:02:12.935Z,2336
2018-02-10T14:03:22.712Z,2280
2018-02-10T14:04:32.212Z,2244
2018-02-10T14:05:41.666Z,2212
2018-02-10T14:06:51.389Z,2140
2018-02-10T14:08:01.366Z,2060
2018-02-10T14:09:10.819Z,2020
2018-02-10T14:10:20.592Z,2028
2018-02-10T14:11:30.571Z,2080
2018-02-10T14:12:39.753Z,2108
2018-02-10T14:13:49.524Z,2128
2018-02-10T14:14:59.557Z,2116
2018-02-10T14:16:09.209Z,2152
2018-02-10T14:17:19.195Z,2268
2018-02-10T14:18:28.978Z,2180
2018-02-10T14:19:38.980Z,2088
2018-02-10T14:20:48.961Z,1980
2018-02-10T14:21:58.673Z,1960
2018-02-10T14:23:08.652Z,1960
2018-02-10T14:24:18.372Z,1984
2018-02-10T14:25:27.556Z,2068
2018-02-10T14:26:37.279Z,2096
2018-02-10T14:27:47.261Z,2108
2018-02-10T14:28:57.254Z,2068
2018-02-10T14:30:07.245Z,1940
2018-02-10T14:31:16.956Z,1792
2018-02-10T14:32:26.946Z,1740
2018-02-10T14:33:36.670Z,1728
2018-02-10T14:34:46.649Z,1744
2018-02-10T14:35:56.629Z,1776
2018-02-10T14:37:06.343Z,1824
2018-02-10T14:38:15.530Z,1748
2018-02-10T14:39:25.557Z,1596
2018-02-10T14:40:34.742Z,1372
2018-02-10T14:41:44.500Z,1208
2018-02-10T14:42:54.220Z,1108
2018-02-10T14:44:03.930Z,1116
2018-02-10T14:45:13.748Z,1124
2018-02-10T14:46:23.461Z,1092
2018-02-10T14:47:33.226Z,1044
2018-02-10T14:48:43.206Z,1004
2018-02-10T14:49:53.207Z,960
2018-02-10T14:51:03.183Z,880
2018-02-10T14:52:12.897Z,804
2018-02-10T14:53:22.874Z,768
2018-02-10T14:54:32.121Z,756
2018-02-10T14:55:41.851Z,752
2018-02-10T14:56:51.836Z,740
2018-02-10T14:58:01.824Z,720
2018-02-10T14:59:11.807Z,720
2018-02-10T15:00:21.523Z,716
2018-02-10T15:01:30.974Z,700
2018-02-10T15:02:40.208Z,680
2018-02-10T15:03:49.394Z,664
2018-02-10T15:04:59.378Z,668
2018-02-10T15:06:08.830Z,660
2018-02-10T15:07:18.541Z,632
2018-02-10T15:08:28.253Z,584
2018-02-10T15:09:38.233Z,572
2018-02-10T15:10:47.946Z,560
2018-02-10T15:11:57.928Z,528
2018-02-10T15:13:07.908Z,508
2018-02-10T15:14:17.906Z,480
2018-02-10T15:15:27.885Z,456
2018-02-10T15:16:37.867Z,428
2018-02-10T15:17:47.585Z,400
2018-02-10T15:18:57.032Z,372
2018-02-10T15:20:07.057Z,344
2018-02-10T15:21:17.033Z,332
2018-02-10T15:22:27.018Z,332
2018-02-10T15:23:36.467Z,324
2018-02-10T15:24:46.181Z,312
2018-02-10T15:25:55.954Z,316
2018-02-10T15:27:05.669Z,316
2018-02-10T15:28:14.858Z,324
2018-02-10T15:29:24.580Z,312
2018-02-10T15:30:34.300Z,292
2018-02-10T15:31:44.017Z,276
2018-02-10T15:32:53.990Z,260
2018-02-10T15:34:03.976Z,236
2018-02-10T15:35:13.962Z,216
2018-02-10T15:36:23.680Z,192
2018-02-10T15:37:33.451Z,176
2018-02-10T15:38:43.168Z,156
2018-02-10T15:39:52.355Z,148
2018-02-10T15:41:01.808Z,140
2018-02-10T15:42:11.525Z,132
2018-02-10T15:43:21.237Z,124
2018-02-10T15:44:30.951Z,116
2018-02-10T15:45:40.931Z,100
2018-02-10T15:46:50.382Z,96
2018-02-10T15:47:59.827Z,88
2018-02-10T15:49:09.280Z,80
2018-02-10T15:50:19.255Z,72
2018-02-10T15:51:28.976Z,68
2018-02-10T15:52:38.692Z,64
2018-02-10T15:53:48.669Z,56
2018-02-10T15:54:58.653Z,52
2018-02-10T15:56:08.103Z,48
2018-02-10T15:57:18.085Z,40
2018-02-10T15:58:27.802Z,36
2018-02-10T15:59:37.517Z,36
2018-02-10T16:00:47.496Z,32
2018-02-10T16:01:57.263Z,28
2018-02-10T16:03:06.710Z,28
2018-02-10T16:04:16.427Z,24
2018-02-10T16:05:25.882Z,20
2018-02-10T16:06:35.647Z,16
2018-02-10T16:07:45.097Z,20
2018-02-10T16:08:55.075Z,12
2018-02-10T16:10:04.793Z,12
2018-02-10T16:11:14.246Z,12
2018-02-10T16:12:24.063Z,12
2018-02-10T16:13:33.245Z,8
2018-02-10T16:14:42.959Z,8
2018-02-10T16:15:52.939Z,8
2018-02-10T16:17:02.924Z,8
2018-02-10T16:18:12.639Z,4